Cadete FAP Guillermo Del Castillo Paredes Airport
SPST : rendu visible

Aérodrome :











RETROUVEZ-NOUS SUR...

 
LOGIN :

S'inscrire | Disclaimer

   EN    FR    IT 

 









Légende :    VFR   VFR Marginal   IFR   IFR Intensif   IFR Très Intensif
Visi : 
Plafond : 
>= 8 km
>= 3000ft
5 à 8 km
1000 à 3000 ft
1500m à 5 km
500 à 1000 ft
800 à 1500m
200 à 500 ft
< 800m
< 200 ft
Symboles :   Orages  Brouillard  Fortes neiges  Fortes précipitations  Vent > 20 kt






- Altitude de l'aérodrome : 869 ft
- Code IATA : TPP


SPST - Cadete FAP Guillermo Del Castillo Paredes

DERNIER METAR :
  • 210300Z 00000KT 9999 FEW025 26/23 Q1008 RMK BIRD HAZARD RWY 17/35 PP000

METARs EXPIRÉS :
  • 210200Z 26003KT 9999 FEW030 28/23 Q1007 RMK BIRD HAZARD RWY 17/35 PP000
  • 210100Z 26004KT 9999 FEW030 30/22 Q1006 RMK BIRD HAZARD RWY 17/35 PP000

TAF SPST
Valide du 21 à 00h jusqu'au 22 à 00h UTC


202310Z 2100/2124 00000KT 9999 SCT025 TX35/2120Z TN22/2111Z
TEMPO 2112/2114 3000 BR SCT007
FM211600 VRB02KT SCT020



MET'MAP, la Météo Aéronautique d'un coup d'oeil ! - Copyright ORBIFLY Décembre 2007 - Disclaimer

ORBIFLY MET'MAP TEAM :

Programmation & Développement : Alexandra Zaïnal
Sur une idée originale de : Baudouin d'Aumeries
Assistance à la programmation : Marc-Olivier Méhu
Soutien technique & logistique : Manuel Goepfert

Contact : metmap@orbifly.com




SOURCES & CREDITS :

   NOAA       Earth
Advisory